sensor_id;sensor_type;location;lat;lon;timestamp;P1;durP1;ratioP1;P2;durP2;ratioP2
11384;SDS011;5747;56.748;13.882;2023-08-17T00:00:38;8.97;;;3.00;;
11384;SDS011;5747;56.748;13.882;2023-08-17T00:03:06;12.93;;;2.53;;
11384;SDS011;5747;56.748;13.882;2023-08-17T00:05:35;10.67;;;2.90;;
11384;SDS011;5747;56.748;13.882;2023-08-17T00:08:03;15.43;;;3.70;;
11384;SDS011;5747;56.748;13.882;2023-08-17T00:10:32;10.90;;;3.00;;
11384;SDS011;5747;56.748;13.882;2023-08-17T00:13:00;10.33;;;2.93;;
11384;SDS011;5747;56.748;13.882;2023-08-17T00:15:31;8.67;;;3.33;;
11384;SDS011;5747;56.748;13.882;2023-08-17T00:17:59;6.83;;;2.73;;
11384;SDS011;5747;56.748;13.882;2023-08-17T00:20:28;12.03;;;3.87;;
11384;SDS011;5747;56.748;13.882;2023-08-17T00:22:56;7.97;;;2.97;;
11384;SDS011;5747;56.748;13.882;2023-08-17T00:25:24;5.70;;;2.63;;
11384;SDS011;5747;56.748;13.882;2023-08-17T00:27:52;4.30;;;2.60;;
11384;SDS011;5747;56.748;13.882;2023-08-17T00:30:21;6.13;;;2.63;;
11384;SDS011;5747;56.748;13.882;2023-08-17T00:32:50;48.30;;;3.90;;
11384;SDS011;5747;56.748;13.882;2023-08-17T00:35:18;46.70;;;3.47;;
11384;SDS011;5747;56.748;13.882;2023-08-17T00:37:46;39.23;;;3.20;;
11384;SDS011;5747;56.748;13.882;2023-08-17T00:40:15;8.73;;;2.00;;
11384;SDS011;5747;56.748;13.882;2023-08-17T00:42:43;6.97;;;2.37;;
11384;SDS011;5747;56.748;13.882;2023-08-17T00:45:12;6.10;;;2.30;;
11384;SDS011;5747;56.748;13.882;2023-08-17T00:47:40;5.80;;;2.50;;
11384;SDS011;5747;56.748;13.882;2023-08-17T00:50:11;8.97;;;2.50;;
11384;SDS011;5747;56.748;13.882;2023-08-17T00:52:39;93.50;;;4.87;;
11384;SDS011;5747;56.748;13.882;2023-08-17T00:55:08;39.33;;;3.30;;
11384;SDS011;5747;56.748;13.882;2023-08-17T00:57:39;10.20;;;2.30;;
11384;SDS011;5747;56.748;13.882;2023-08-17T01:00:08;24.93;;;3.20;;
11384;SDS011;5747;56.748;13.882;2023-08-17T01:02:41;9.00;;;2.50;;
11384;SDS011;5747;56.748;13.882;2023-08-17T01:05:12;6.40;;;2.50;;
11384;SDS011;5747;56.748;13.882;2023-08-17T01:07:40;37.93;;;3.80;;
11384;SDS011;5747;56.748;13.882;2023-08-17T01:10:09;21.13;;;2.60;;
11384;SDS011;5747;56.748;13.882;2023-08-17T01:12:38;2.30;;;2.10;;
11384;SDS011;5747;56.748;13.882;2023-08-17T01:15:12;1.90;;;1.80;;
11384;SDS011;5747;56.748;13.882;2023-08-17T01:17:43;4.63;;;2.00;;
11384;SDS011;5747;56.748;13.882;2023-08-17T01:20:17;4.10;;;2.30;;
11384;SDS011;5747;56.748;13.882;2023-08-17T01:22:48;6.27;;;1.90;;
11384;SDS011;5747;56.748;13.882;2023-08-17T01:25:19;6.63;;;2.00;;
11384;SDS011;5747;56.748;13.882;2023-08-17T01:27:47;21.70;;;3.10;;
11384;SDS011;5747;56.748;13.882;2023-08-17T01:30:15;39.63;;;2.83;;
11384;SDS011;5747;56.748;13.882;2023-08-17T01:32:48;6.93;;;1.87;;
11384;SDS011;5747;56.748;13.882;2023-08-17T01:35:21;11.50;;;1.80;;
11384;SDS011;5747;56.748;13.882;2023-08-17T01:37:58;3.93;;;2.00;;
11384;SDS011;5747;56.748;13.882;2023-08-17T01:40:32;3.23;;;2.30;;
11384;SDS011;5747;56.748;13.882;2023-08-17T01:43:01;4.73;;;2.20;;
11384;SDS011;5747;56.748;13.882;2023-08-17T01:45:30;5.73;;;1.83;;
11384;SDS011;5747;56.748;13.882;2023-08-17T01:48:00;6.23;;;1.90;;
11384;SDS011;5747;56.748;13.882;2023-08-17T01:50:29;3.50;;;2.13;;
11384;SDS011;5747;56.748;13.882;2023-08-17T01:52:57;14.10;;;2.83;;
11384;SDS011;5747;56.748;13.882;2023-08-17T01:55:26;26.27;;;2.93;;
11384;SDS011;5747;56.748;13.882;2023-08-17T01:57:55;3.50;;;2.10;;
11384;SDS011;5747;56.748;13.882;2023-08-17T02:00:23;5.90;;;2.37;;
11384;SDS011;5747;56.748;13.882;2023-08-17T02:02:51;3.20;;;2.43;;
11384;SDS011;5747;56.748;13.882;2023-08-17T02:05:20;8.97;;;2.13;;
11384;SDS011;5747;56.748;13.882;2023-08-17T02:07:48;5.43;;;2.30;;
11384;SDS011;5747;56.748;13.882;2023-08-17T02:10:16;6.93;;;3.03;;
11384;SDS011;5747;56.748;13.882;2023-08-17T02:12:44;4.43;;;2.70;;
11384;SDS011;5747;56.748;13.882;2023-08-17T02:15:14;3.77;;;2.80;;
11384;SDS011;5747;56.748;13.882;2023-08-17T02:17:43;5.30;;;2.87;;
11384;SDS011;5747;56.748;13.882;2023-08-17T02:20:11;9.83;;;2.80;;
11384;SDS011;5747;56.748;13.882;2023-08-17T02:22:41;3.73;;;2.30;;
11384;SDS011;5747;56.748;13.882;2023-08-17T02:25:09;4.57;;;2.57;;
11384;SDS011;5747;56.748;13.882;2023-08-17T02:27:38;9.30;;;2.57;;
11384;SDS011;5747;56.748;13.882;2023-08-17T02:30:06;5.40;;;2.30;;
11384;SDS011;5747;56.748;13.882;2023-08-17T02:32:36;4.43;;;2.27;;
11384;SDS011;5747;56.748;13.882;2023-08-17T02:35:05;5.00;;;2.17;;
11384;SDS011;5747;56.748;13.882;2023-08-17T02:37:34;3.40;;;1.77;;
11384;SDS011;5747;56.748;13.882;2023-08-17T02:40:02;8.00;;;2.17;;
11384;SDS011;5747;56.748;13.882;2023-08-17T02:42:31;7.57;;;2.20;;
11384;SDS011;5747;56.748;13.882;2023-08-17T02:44:59;11.47;;;2.27;;
11384;SDS011;5747;56.748;13.882;2023-08-17T02:47:28;7.93;;;1.97;;
11384;SDS011;5747;56.748;13.882;2023-08-17T02:49:58;5.43;;;1.77;;
11384;SDS011;5747;56.748;13.882;2023-08-17T02:52:26;6.53;;;2.10;;
11384;SDS011;5747;56.748;13.882;2023-08-17T02:54:54;4.00;;;1.87;;
11384;SDS011;5747;56.748;13.882;2023-08-17T02:57:22;5.07;;;2.03;;
11384;SDS011;5747;56.748;13.882;2023-08-17T02:59:51;3.40;;;2.50;;
11384;SDS011;5747;56.748;13.882;2023-08-17T03:02:19;8.93;;;2.07;;
11384;SDS011;5747;56.748;13.882;2023-08-17T03:04:47;2.87;;;2.37;;
11384;SDS011;5747;56.748;13.882;2023-08-17T03:07:17;4.27;;;2.40;;
11384;SDS011;5747;56.748;13.882;2023-08-17T03:09:45;2.97;;;2.10;;
11384;SDS011;5747;56.748;13.882;2023-08-17T03:12:14;6.53;;;2.30;;
11384;SDS011;5747;56.748;13.882;2023-08-17T03:14:42;4.17;;;2.60;;
11384;SDS011;5747;56.748;13.882;2023-08-17T03:17:11;12.50;;;2.33;;
11384;SDS011;5747;56.748;13.882;2023-08-17T03:19:40;9.13;;;2.70;;
11384;SDS011;5747;56.748;13.882;2023-08-17T03:22:08;3.77;;;2.60;;
11384;SDS011;5747;56.748;13.882;2023-08-17T03:24:38;11.73;;;3.30;;
11384;SDS011;5747;56.748;13.882;2023-08-17T03:27:07;9.23;;;2.90;;
11384;SDS011;5747;56.748;13.882;2023-08-17T03:29:35;3.97;;;2.50;;
11384;SDS011;5747;56.748;13.882;2023-08-17T03:32:03;5.20;;;2.40;;
11384;SDS011;5747;56.748;13.882;2023-08-17T03:34:32;3.83;;;2.27;;
11384;SDS011;5747;56.748;13.882;2023-08-17T03:37:00;4.03;;;2.53;;
11384;SDS011;5747;56.748;13.882;2023-08-17T03:39:29;3.00;;;2.53;;
11384;SDS011;5747;56.748;13.882;2023-08-17T03:41:58;3.73;;;2.60;;
11384;SDS011;5747;56.748;13.882;2023-08-17T03:44:26;3.87;;;2.50;;
11384;SDS011;5747;56.748;13.882;2023-08-17T03:46:54;4.53;;;2.90;;
11384;SDS011;5747;56.748;13.882;2023-08-17T03:49:23;4.90;;;2.37;;
11384;SDS011;5747;56.748;13.882;2023-08-17T03:51:51;3.50;;;2.37;;
11384;SDS011;5747;56.748;13.882;2023-08-17T03:54:20;3.63;;;2.70;;
11384;SDS011;5747;56.748;13.882;2023-08-17T03:56:48;3.57;;;2.67;;
11384;SDS011;5747;56.748;13.882;2023-08-17T03:59:17;4.70;;;2.93;;
11384;SDS011;5747;56.748;13.882;2023-08-17T04:01:46;13.93;;;3.60;;
11384;SDS011;5747;56.748;13.882;2023-08-17T04:04:14;8.80;;;3.77;;
11384;SDS011;5747;56.748;13.882;2023-08-17T04:06:42;9.83;;;4.40;;
11384;SDS011;5747;56.748;13.882;2023-08-17T04:09:11;6.97;;;3.40;;
11384;SDS011;5747;56.748;13.882;2023-08-17T04:11:39;6.30;;;3.40;;
11384;SDS011;5747;56.748;13.882;2023-08-17T04:14:07;4.37;;;2.90;;
11384;SDS011;5747;56.748;13.882;2023-08-17T04:16:37;6.17;;;3.43;;
11384;SDS011;5747;56.748;13.882;2023-08-17T04:19:05;6.53;;;3.33;;
11384;SDS011;5747;56.748;13.882;2023-08-17T04:21:34;5.67;;;3.57;;
11384;SDS011;5747;56.748;13.882;2023-08-17T04:24:02;7.27;;;3.40;;
11384;SDS011;5747;56.748;13.882;2023-08-17T04:26:31;5.57;;;3.73;;
11384;SDS011;5747;56.748;13.882;2023-08-17T04:29:00;9.03;;;3.00;;
11384;SDS011;5747;56.748;13.882;2023-08-17T04:31:27;4.83;;;3.13;;
11384;SDS011;5747;56.748;13.882;2023-08-17T04:34:01;5.40;;;3.23;;
11384;SDS011;5747;56.748;13.882;2023-08-17T04:36:29;5.20;;;3.20;;
11384;SDS011;5747;56.748;13.882;2023-08-17T04:38:57;6.40;;;3.17;;
11384;SDS011;5747;56.748;13.882;2023-08-17T04:41:25;7.20;;;3.50;;
11384;SDS011;5747;56.748;13.882;2023-08-17T04:43:54;3.60;;;3.13;;
11384;SDS011;5747;56.748;13.882;2023-08-17T04:46:22;9.10;;;3.10;;
11384;SDS011;5747;56.748;13.882;2023-08-17T04:48:50;4.90;;;2.80;;
11384;SDS011;5747;56.748;13.882;2023-08-17T04:51:20;6.40;;;3.10;;
11384;SDS011;5747;56.748;13.882;2023-08-17T04:53:48;6.87;;;3.00;;
11384;SDS011;5747;56.748;13.882;2023-08-17T04:56:16;6.03;;;3.37;;
11384;SDS011;5747;56.748;13.882;2023-08-17T04:58:45;7.90;;;2.97;;
11384;SDS011;5747;56.748;13.882;2023-08-17T05:01:14;4.90;;;3.00;;
11384;SDS011;5747;56.748;13.882;2023-08-17T05:03:42;4.90;;;2.73;;
11384;SDS011;5747;56.748;13.882;2023-08-17T05:06:11;6.13;;;3.10;;
11384;SDS011;5747;56.748;13.882;2023-08-17T05:08:41;6.80;;;3.10;;
11384;SDS011;5747;56.748;13.882;2023-08-17T05:11:09;7.40;;;3.70;;
11384;SDS011;5747;56.748;13.882;2023-08-17T05:13:37;9.03;;;3.80;;
11384;SDS011;5747;56.748;13.882;2023-08-17T05:16:06;9.10;;;3.33;;
11384;SDS011;5747;56.748;13.882;2023-08-17T05:18:34;6.43;;;2.90;;
11384;SDS011;5747;56.748;13.882;2023-08-17T05:21:03;5.80;;;3.20;;
11384;SDS011;5747;56.748;13.882;2023-08-17T05:23:31;4.50;;;2.67;;
11384;SDS011;5747;56.748;13.882;2023-08-17T05:26:01;5.03;;;3.00;;
11384;SDS011;5747;56.748;13.882;2023-08-17T05:28:29;3.83;;;2.73;;
11384;SDS011;5747;56.748;13.882;2023-08-17T05:31:02;3.57;;;2.77;;
11384;SDS011;5747;56.748;13.882;2023-08-17T05:33:35;5.27;;;3.30;;
11384;SDS011;5747;56.748;13.882;2023-08-17T05:36:03;4.07;;;3.07;;
11384;SDS011;5747;56.748;13.882;2023-08-17T05:38:31;3.10;;;2.80;;
11384;SDS011;5747;56.748;13.882;2023-08-17T05:41:01;4.70;;;2.90;;
11384;SDS011;5747;56.748;13.882;2023-08-17T05:43:29;3.27;;;2.83;;
11384;SDS011;5747;56.748;13.882;2023-08-17T05:45:57;5.63;;;2.80;;
11384;SDS011;5747;56.748;13.882;2023-08-17T05:48:26;5.20;;;3.10;;
11384;SDS011;5747;56.748;13.882;2023-08-17T05:50:55;4.90;;;3.23;;
11384;SDS011;5747;56.748;13.882;2023-08-17T05:53:23;5.77;;;3.07;;
11384;SDS011;5747;56.748;13.882;2023-08-17T05:55:51;4.13;;;2.90;;
11384;SDS011;5747;56.748;13.882;2023-08-17T05:58:20;4.37;;;3.00;;
11384;SDS011;5747;56.748;13.882;2023-08-17T06:00:49;3.73;;;2.77;;
11384;SDS011;5747;56.748;13.882;2023-08-17T06:03:17;3.47;;;2.70;;
11384;SDS011;5747;56.748;13.882;2023-08-17T06:05:45;3.73;;;2.60;;
11384;SDS011;5747;56.748;13.882;2023-08-17T06:08:13;3.50;;;2.87;;
11384;SDS011;5747;56.748;13.882;2023-08-17T06:10:42;5.33;;;2.80;;
11384;SDS011;5747;56.748;13.882;2023-08-17T06:13:10;3.80;;;2.50;;
11384;SDS011;5747;56.748;13.882;2023-08-17T06:15:39;8.23;;;2.93;;
11384;SDS011;5747;56.748;13.882;2023-08-17T06:18:08;2.27;;;2.07;;
11384;SDS011;5747;56.748;13.882;2023-08-17T06:20:36;4.00;;;2.70;;
11384;SDS011;5747;56.748;13.882;2023-08-17T06:23:05;3.33;;;2.27;;
11384;SDS011;5747;56.748;13.882;2023-08-17T06:25:33;4.70;;;2.60;;
11384;SDS011;5747;56.748;13.882;2023-08-17T06:28:01;7.50;;;2.53;;
11384;SDS011;5747;56.748;13.882;2023-08-17T06:30:30;5.73;;;2.57;;
11384;SDS011;5747;56.748;13.882;2023-08-17T06:32:59;2.77;;;2.53;;
11384;SDS011;5747;56.748;13.882;2023-08-17T06:35:27;2.50;;;2.30;;
11384;SDS011;5747;56.748;13.882;2023-08-17T06:37:56;3.00;;;2.27;;
11384;SDS011;5747;56.748;13.882;2023-08-17T06:40:24;2.93;;;2.40;;
11384;SDS011;5747;56.748;13.882;2023-08-17T06:42:52;3.93;;;2.03;;
11384;SDS011;5747;56.748;13.882;2023-08-17T06:45:21;2.40;;;2.17;;
11384;SDS011;5747;56.748;13.882;2023-08-17T06:47:50;3.13;;;2.37;;
11384;SDS011;5747;56.748;13.882;2023-08-17T06:50:19;5.73;;;2.17;;
11384;SDS011;5747;56.748;13.882;2023-08-17T06:52:47;2.90;;;2.07;;
11384;SDS011;5747;56.748;13.882;2023-08-17T06:55:16;5.90;;;2.27;;
11384;SDS011;5747;56.748;13.882;2023-08-17T06:57:44;3.30;;;2.10;;
11384;SDS011;5747;56.748;13.882;2023-08-17T07:00:12;4.57;;;2.23;;
11384;SDS011;5747;56.748;13.882;2023-08-17T07:02:41;3.20;;;2.03;;
11384;SDS011;5747;56.748;13.882;2023-08-17T07:05:21;3.27;;;1.97;;
11384;SDS011;5747;56.748;13.882;2023-08-17T07:07:50;5.07;;;2.27;;
11384;SDS011;5747;56.748;13.882;2023-08-17T07:10:19;3.93;;;2.00;;
11384;SDS011;5747;56.748;13.882;2023-08-17T07:12:47;4.70;;;2.37;;
11384;SDS011;5747;56.748;13.882;2023-08-17T07:15:15;3.87;;;2.40;;
11384;SDS011;5747;56.748;13.882;2023-08-17T07:17:44;3.70;;;2.00;;
11384;SDS011;5747;56.748;13.882;2023-08-17T07:20:12;2.97;;;1.90;;
11384;SDS011;5747;56.748;13.882;2023-08-17T07:22:45;2.93;;;1.83;;
11384;SDS011;5747;56.748;13.882;2023-08-17T07:25:14;2.50;;;1.70;;
11384;SDS011;5747;56.748;13.882;2023-08-17T07:27:42;3.40;;;1.77;;
11384;SDS011;5747;56.748;13.882;2023-08-17T07:30:11;3.63;;;1.67;;
11384;SDS011;5747;56.748;13.882;2023-08-17T07:32:39;4.20;;;1.90;;
11384;SDS011;5747;56.748;13.882;2023-08-17T07:35:08;2.83;;;1.60;;
11384;SDS011;5747;56.748;13.882;2023-08-17T07:37:36;2.60;;;1.63;;
11384;SDS011;5747;56.748;13.882;2023-08-17T07:40:06;2.90;;;1.60;;
11384;SDS011;5747;56.748;13.882;2023-08-17T07:42:35;3.77;;;1.60;;
11384;SDS011;5747;56.748;13.882;2023-08-17T07:45:04;2.73;;;1.43;;
11384;SDS011;5747;56.748;13.882;2023-08-17T07:47:34;3.70;;;1.43;;
11384;SDS011;5747;56.748;13.882;2023-08-17T07:50:03;3.60;;;1.77;;
11384;SDS011;5747;56.748;13.882;2023-08-17T07:52:32;4.60;;;1.50;;
11384;SDS011;5747;56.748;13.882;2023-08-17T07:55:00;2.07;;;1.67;;
11384;SDS011;5747;56.748;13.882;2023-08-17T07:57:31;4.60;;;1.40;;
11384;SDS011;5747;56.748;13.882;2023-08-17T07:59:59;1.80;;;1.53;;
11384;SDS011;5747;56.748;13.882;2023-08-17T08:02:33;4.57;;;1.70;;
11384;SDS011;5747;56.748;13.882;2023-08-17T08:05:01;2.63;;;1.40;;
11384;SDS011;5747;56.748;13.882;2023-08-17T08:07:30;2.27;;;1.70;;
11384;SDS011;5747;56.748;13.882;2023-08-17T08:09:58;1.60;;;1.40;;
11384;SDS011;5747;56.748;13.882;2023-08-17T08:12:26;2.93;;;1.57;;
11384;SDS011;5747;56.748;13.882;2023-08-17T08:14:56;1.70;;;1.30;;
11384;SDS011;5747;56.748;13.882;2023-08-17T08:17:25;3.50;;;1.60;;
11384;SDS011;5747;56.748;13.882;2023-08-17T08:19:54;1.43;;;1.33;;
11384;SDS011;5747;56.748;13.882;2023-08-17T08:22:22;2.93;;;1.70;;
11384;SDS011;5747;56.748;13.882;2023-08-17T08:24:51;2.07;;;1.30;;
11384;SDS011;5747;56.748;13.882;2023-08-17T08:27:20;2.43;;;1.57;;
11384;SDS011;5747;56.748;13.882;2023-08-17T08:29:48;2.40;;;1.53;;
11384;SDS011;5747;56.748;13.882;2023-08-17T08:32:17;2.17;;;1.40;;
11384;SDS011;5747;56.748;13.882;2023-08-17T08:34:45;2.07;;;1.30;;
11384;SDS011;5747;56.748;13.882;2023-08-17T08:37:13;4.00;;;1.60;;
11384;SDS011;5747;56.748;13.882;2023-08-17T08:39:47;4.33;;;1.30;;
11384;SDS011;5747;56.748;13.882;2023-08-17T08:42:17;2.73;;;1.10;;
11384;SDS011;5747;56.748;13.882;2023-08-17T08:44:45;2.77;;;1.30;;
11384;SDS011;5747;56.748;13.882;2023-08-17T08:47:13;1.60;;;1.20;;
11384;SDS011;5747;56.748;13.882;2023-08-17T08:49:48;1.47;;;1.00;;
11384;SDS011;5747;56.748;13.882;2023-08-17T08:52:22;4.00;;;1.30;;
11384;SDS011;5747;56.748;13.882;2023-08-17T08:54:53;1.40;;;1.10;;
11384;SDS011;5747;56.748;13.882;2023-08-17T08:57:24;1.80;;;1.00;;
11384;SDS011;5747;56.748;13.882;2023-08-17T08:59:56;1.40;;;1.20;;
11384;SDS011;5747;56.748;13.882;2023-08-17T09:02:26;2.27;;;1.20;;
11384;SDS011;5747;56.748;13.882;2023-08-17T09:04:56;1.80;;;1.13;;
11384;SDS011;5747;56.748;13.882;2023-08-17T09:07:25;1.20;;;1.10;;
11384;SDS011;5747;56.748;13.882;2023-08-17T09:09:56;4.07;;;1.37;;
11384;SDS011;5747;56.748;13.882;2023-08-17T09:12:24;2.73;;;1.30;;
11384;SDS011;5747;56.748;13.882;2023-08-17T09:15:06;2.20;;;1.30;;
11384;SDS011;5747;56.748;13.882;2023-08-17T09:17:34;2.17;;;1.37;;
11384;SDS011;5747;56.748;13.882;2023-08-17T09:20:05;2.07;;;1.30;;
11384;SDS011;5747;56.748;13.882;2023-08-17T09:22:38;1.63;;;1.10;;
11384;SDS011;5747;56.748;13.882;2023-08-17T09:25:07;1.67;;;1.27;;
11384;SDS011;5747;56.748;13.882;2023-08-17T09:27:36;1.13;;;0.97;;
11384;SDS011;5747;56.748;13.882;2023-08-17T09:30:05;3.37;;;1.23;;
11384;SDS011;5747;56.748;13.882;2023-08-17T09:32:36;1.53;;;1.20;;
11384;SDS011;5747;56.748;13.882;2023-08-17T09:35:06;3.30;;;1.10;;
11384;SDS011;5747;56.748;13.882;2023-08-17T09:37:35;1.33;;;1.10;;
11384;SDS011;5747;56.748;13.882;2023-08-17T09:40:03;2.37;;;1.30;;
11384;SDS011;5747;56.748;13.882;2023-08-17T09:42:34;1.87;;;1.37;;
11384;SDS011;5747;56.748;13.882;2023-08-17T09:45:03;1.20;;;1.10;;
11384;SDS011;5747;56.748;13.882;2023-08-17T09:47:32;1.27;;;1.17;;
11384;SDS011;5747;56.748;13.882;2023-08-17T09:50:00;1.10;;;1.00;;
11384;SDS011;5747;56.748;13.882;2023-08-17T09:52:30;1.83;;;1.23;;
11384;SDS011;5747;56.748;13.882;2023-08-17T09:54:58;2.30;;;1.20;;
11384;SDS011;5747;56.748;13.882;2023-08-17T09:57:34;2.77;;;1.30;;
11384;SDS011;5747;56.748;13.882;2023-08-17T10:00:03;2.00;;;1.10;;
11384;SDS011;5747;56.748;13.882;2023-08-17T10:02:33;1.30;;;1.20;;
11384;SDS011;5747;56.748;13.882;2023-08-17T10:05:02;3.87;;;1.37;;
11384;SDS011;5747;56.748;13.882;2023-08-17T10:07:34;3.03;;;1.20;;
11384;SDS011;5747;56.748;13.882;2023-08-17T10:10:05;1.37;;;1.27;;
11384;SDS011;5747;56.748;13.882;2023-08-17T10:12:35;1.60;;;1.30;;
11384;SDS011;5747;56.748;13.882;2023-08-17T10:15:06;1.47;;;1.30;;
11384;SDS011;5747;56.748;13.882;2023-08-17T10:17:46;2.43;;;1.33;;
11384;SDS011;5747;56.748;13.882;2023-08-17T10:20:21;2.37;;;1.10;;
11384;SDS011;5747;56.748;13.882;2023-08-17T10:22:54;1.13;;;1.03;;
11384;SDS011;5747;56.748;13.882;2023-08-17T10:25:29;3.27;;;1.50;;
11384;SDS011;5747;56.748;13.882;2023-08-17T10:27:59;1.30;;;1.20;;
11384;SDS011;5747;56.748;13.882;2023-08-17T10:30:30;2.50;;;1.50;;
11384;SDS011;5747;56.748;13.882;2023-08-17T10:32:58;1.97;;;1.40;;
11384;SDS011;5747;56.748;13.882;2023-08-17T10:35:27;2.07;;;1.30;;
11384;SDS011;5747;56.748;13.882;2023-08-17T10:37:57;1.60;;;1.20;;
11384;SDS011;5747;56.748;13.882;2023-08-17T10:40:26;2.60;;;1.27;;
11384;SDS011;5747;56.748;13.882;2023-08-17T10:42:55;2.50;;;1.60;;
11384;SDS011;5747;56.748;13.882;2023-08-17T10:45:27;1.97;;;1.20;;
11384;SDS011;5747;56.748;13.882;2023-08-17T10:48:24;1.30;;;1.20;;
11384;SDS011;5747;56.748;13.882;2023-08-17T10:51:04;2.47;;;1.30;;
11384;SDS011;5747;56.748;13.882;2023-08-17T10:53:37;1.90;;;1.40;;
11384;SDS011;5747;56.748;13.882;2023-08-17T10:56:11;1.70;;;1.27;;
11384;SDS011;5747;56.748;13.882;2023-08-17T10:58:42;2.27;;;1.30;;
11384;SDS011;5747;56.748;13.882;2023-08-17T11:01:11;1.37;;;1.10;;
11384;SDS011;5747;56.748;13.882;2023-08-17T11:03:41;2.97;;;1.27;;
11384;SDS011;5747;56.748;13.882;2023-08-17T11:06:14;3.00;;;1.30;;
11384;SDS011;5747;56.748;13.882;2023-08-17T11:08:55;2.77;;;1.30;;
11384;SDS011;5747;56.748;13.882;2023-08-17T11:11:24;1.17;;;1.03;;
11384;SDS011;5747;56.748;13.882;2023-08-17T11:13:58;1.40;;;1.30;;
11384;SDS011;5747;56.748;13.882;2023-08-17T11:16:26;2.67;;;1.20;;
11384;SDS011;5747;56.748;13.882;2023-08-17T11:18:54;3.43;;;1.10;;
11384;SDS011;5747;56.748;13.882;2023-08-17T11:21:25;2.13;;;1.33;;
11384;SDS011;5747;56.748;13.882;2023-08-17T11:23:56;4.10;;;1.43;;
11384;SDS011;5747;56.748;13.882;2023-08-17T11:26:25;1.77;;;1.20;;
11384;SDS011;5747;56.748;13.882;2023-08-17T11:29:01;2.50;;;1.37;;
11384;SDS011;5747;56.748;13.882;2023-08-17T11:31:29;1.73;;;1.13;;
11384;SDS011;5747;56.748;13.882;2023-08-17T11:34:00;1.63;;;1.30;;
11384;SDS011;5747;56.748;13.882;2023-08-17T11:36:28;2.47;;;1.50;;
11384;SDS011;5747;56.748;13.882;2023-08-17T11:38:58;2.20;;;1.23;;
11384;SDS011;5747;56.748;13.882;2023-08-17T11:41:26;2.70;;;1.50;;
11384;SDS011;5747;56.748;13.882;2023-08-17T11:43:54;2.83;;;1.40;;
11384;SDS011;5747;56.748;13.882;2023-08-17T11:46:23;1.67;;;1.20;;
11384;SDS011;5747;56.748;13.882;2023-08-17T11:48:54;1.53;;;1.30;;
11384;SDS011;5747;56.748;13.882;2023-08-17T11:51:28;1.30;;;1.20;;
11384;SDS011;5747;56.748;13.882;2023-08-17T11:53:59;1.50;;;1.40;;
11384;SDS011;5747;56.748;13.882;2023-08-17T11:56:29;1.53;;;1.20;;
11384;SDS011;5747;56.748;13.882;2023-08-17T11:58:57;1.60;;;1.30;;
11384;SDS011;5747;56.748;13.882;2023-08-17T12:01:25;2.70;;;1.50;;
11384;SDS011;5747;56.748;13.882;2023-08-17T12:03:54;1.97;;;1.50;;
11384;SDS011;5747;56.748;13.882;2023-08-17T12:06:22;4.03;;;1.80;;
11384;SDS011;5747;56.748;13.882;2023-08-17T12:08:50;2.90;;;1.20;;
11384;SDS011;5747;56.748;13.882;2023-08-17T12:11:19;1.83;;;1.00;;
11384;SDS011;5747;56.748;13.882;2023-08-17T12:13:52;1.83;;;1.20;;
11384;SDS011;5747;56.748;13.882;2023-08-17T12:16:20;1.73;;;1.30;;
11384;SDS011;5747;56.748;13.882;2023-08-17T12:18:50;1.70;;;1.30;;
11384;SDS011;5747;56.748;13.882;2023-08-17T12:21:19;2.13;;;1.33;;
11384;SDS011;5747;56.748;13.882;2023-08-17T12:23:48;2.90;;;1.20;;
11384;SDS011;5747;56.748;13.882;2023-08-17T12:26:20;2.60;;;1.43;;
11384;SDS011;5747;56.748;13.882;2023-08-17T12:28:49;3.97;;;1.27;;
11384;SDS011;5747;56.748;13.882;2023-08-17T12:31:20;1.23;;;1.13;;
11384;SDS011;5747;56.748;13.882;2023-08-17T12:33:50;1.60;;;1.10;;
11384;SDS011;5747;56.748;13.882;2023-08-17T12:36:19;1.93;;;1.30;;
11384;SDS011;5747;56.748;13.882;2023-08-17T12:38:48;3.50;;;1.33;;
11384;SDS011;5747;56.748;13.882;2023-08-17T12:41:16;2.13;;;1.10;;
11384;SDS011;5747;56.748;13.882;2023-08-17T12:43:46;4.03;;;1.50;;
11384;SDS011;5747;56.748;13.882;2023-08-17T12:46:14;2.30;;;1.33;;
11384;SDS011;5747;56.748;13.882;2023-08-17T12:48:42;3.23;;;1.30;;
11384;SDS011;5747;56.748;13.882;2023-08-17T12:51:10;3.93;;;1.37;;
11384;SDS011;5747;56.748;13.882;2023-08-17T12:53:38;1.60;;;1.20;;
11384;SDS011;5747;56.748;13.882;2023-08-17T12:56:07;2.77;;;1.30;;
11384;SDS011;5747;56.748;13.882;2023-08-17T12:58:35;2.17;;;1.20;;
11384;SDS011;5747;56.748;13.882;2023-08-17T13:01:04;1.97;;;1.20;;
11384;SDS011;5747;56.748;13.882;2023-08-17T13:03:32;1.60;;;1.33;;
11384;SDS011;5747;56.748;13.882;2023-08-17T13:06:01;2.00;;;1.43;;
11384;SDS011;5747;56.748;13.882;2023-08-17T13:08:29;2.30;;;1.03;;
11384;SDS011;5747;56.748;13.882;2023-08-17T13:10:57;1.47;;;1.20;;
11384;SDS011;5747;56.748;13.882;2023-08-17T13:13:25;3.47;;;1.30;;
11384;SDS011;5747;56.748;13.882;2023-08-17T13:15:53;1.77;;;1.47;;
11384;SDS011;5747;56.748;13.882;2023-08-17T13:18:23;2.87;;;1.20;;
11384;SDS011;5747;56.748;13.882;2023-08-17T13:20:51;1.93;;;1.20;;
11384;SDS011;5747;56.748;13.882;2023-08-17T13:23:19;2.13;;;1.40;;
11384;SDS011;5747;56.748;13.882;2023-08-17T13:25:47;3.07;;;1.23;;
11384;SDS011;5747;56.748;13.882;2023-08-17T13:28:15;2.60;;;1.10;;
11384;SDS011;5747;56.748;13.882;2023-08-17T13:30:43;1.13;;;1.10;;
11384;SDS011;5747;56.748;13.882;2023-08-17T13:33:12;1.63;;;1.13;;
11384;SDS011;5747;56.748;13.882;2023-08-17T13:35:44;1.53;;;1.20;;
11384;SDS011;5747;56.748;13.882;2023-08-17T13:38:12;1.23;;;1.10;;
11384;SDS011;5747;56.748;13.882;2023-08-17T13:40:40;1.40;;;1.30;;
11384;SDS011;5747;56.748;13.882;2023-08-17T13:43:08;1.27;;;1.20;;
11384;SDS011;5747;56.748;13.882;2023-08-17T13:45:38;1.80;;;1.40;;
11384;SDS011;5747;56.748;13.882;2023-08-17T13:48:07;2.03;;;1.30;;
11384;SDS011;5747;56.748;13.882;2023-08-17T13:50:37;1.97;;;1.10;;
11384;SDS011;5747;56.748;13.882;2023-08-17T13:53:07;2.10;;;1.20;;
11384;SDS011;5747;56.748;13.882;2023-08-17T13:55:36;1.33;;;1.20;;
11384;SDS011;5747;56.748;13.882;2023-08-17T13:58:04;1.17;;;1.03;;
11384;SDS011;5747;56.748;13.882;2023-08-17T14:00:32;1.43;;;1.10;;
11384;SDS011;5747;56.748;13.882;2023-08-17T14:03:00;1.50;;;1.20;;
11384;SDS011;5747;56.748;13.882;2023-08-17T14:05:28;2.27;;;1.00;;
11384;SDS011;5747;56.748;13.882;2023-08-17T14:07:56;3.53;;;1.20;;
11384;SDS011;5747;56.748;13.882;2023-08-17T14:10:26;3.60;;;1.13;;
11384;SDS011;5747;56.748;13.882;2023-08-17T14:13:05;3.33;;;1.30;;
11384;SDS011;5747;56.748;13.882;2023-08-17T14:15:33;1.47;;;1.30;;
11384;SDS011;5747;56.748;13.882;2023-08-17T14:18:02;1.20;;;1.10;;
11384;SDS011;5747;56.748;13.882;2023-08-17T14:20:30;1.30;;;1.20;;
11384;SDS011;5747;56.748;13.882;2023-08-17T14:22:58;3.23;;;1.40;;
11384;SDS011;5747;56.748;13.882;2023-08-17T14:25:28;2.80;;;1.10;;
11384;SDS011;5747;56.748;13.882;2023-08-17T14:27:57;1.53;;;1.10;;
11384;SDS011;5747;56.748;13.882;2023-08-17T14:30:25;1.47;;;1.10;;
11384;SDS011;5747;56.748;13.882;2023-08-17T14:32:53;1.50;;;1.20;;
11384;SDS011;5747;56.748;13.882;2023-08-17T14:35:26;1.77;;;1.10;;
11384;SDS011;5747;56.748;13.882;2023-08-17T14:37:57;1.37;;;1.20;;
11384;SDS011;5747;56.748;13.882;2023-08-17T14:40:28;1.77;;;1.10;;
11384;SDS011;5747;56.748;13.882;2023-08-17T14:42:56;1.77;;;1.23;;
11384;SDS011;5747;56.748;13.882;2023-08-17T14:45:25;1.37;;;1.10;;
11384;SDS011;5747;56.748;13.882;2023-08-17T14:47:53;1.27;;;1.17;;
11384;SDS011;5747;56.748;13.882;2023-08-17T14:50:24;1.97;;;1.10;;
11384;SDS011;5747;56.748;13.882;2023-08-17T14:52:54;2.37;;;1.07;;
11384;SDS011;5747;56.748;13.882;2023-08-17T14:55:22;1.93;;;1.30;;
11384;SDS011;5747;56.748;13.882;2023-08-17T14:57:52;4.60;;;1.37;;
11384;SDS011;5747;56.748;13.882;2023-08-17T15:00:20;2.87;;;1.30;;